Newport, Minnesota
Current Conditions -  °F | °C
As of 5:10 AM on Sunday 21 Dec 2014 (Local Time) from KSGS Reporting Station
Haze Haze  
Wind Chill: 26°   Ceiling: 600
Heat Index: 33°   Visibility: 5mi
Dew Point: 31°   Wind: 7mph
Humidity: 94%   Direction: 150°SSE
Pressure: 29.95"   Gusts: NA
Location:  44.87°N, 93°W
Report Text: KSGS 211110Z AUTO 15006KT 5SM BR OVC006 00/00 A2995 RMK AO2 T00031005
Loading
Personal Weather Stations






























Interactive Weather Map New forecast layout! Learn more

10-Day Weather Forecast

Advertisements
Track Severe Weather on mobile